CheckWX is a tool to help pilots better visualize weather data.  It is not intended as a substitute for an official pre-flight weather briefing.

09:16:15 UTC

LIPQ METAR
Trieste–Friuli Venezia Giulia Airport
Trieste, Italy
Current

26 mins ago

LIPQ 170850Z 19005KT 140V240 CAVOK 27/18 Q1013
Observed
Jul-17 @ 08:50 UTC
Wind
  • 190° at 5 KTS
Visibility
10,000+ meters
Flight Rules
VFR
Cloud Levels
  • Clear skies
Temperature
27°C / 81°F
Dewpoint
18°C / 64°F
Heat Index
28°C / 83°F
Humidity
58%
Altimeter
29.91" Hg
Pressure
1012.92 hPa
Previous

56 mins ago

LIPQ 170820Z 19004KT 120V250 CAVOK 26/18 Q1013
Observed
Jul-17 @ 08:20 UTC
Wind
  • 190° at 4 KTS
Visibility
10,000+ meters
Flight Rules
VFR
Cloud Levels
  • Clear skies
Temperature
26°C / 79°F
Dewpoint
18°C / 64°F
Humidity
61%
Altimeter
29.91" Hg
Pressure
1012.92 hPa
Previous

1 hour ago

LIPQ 170750Z VRB02KT CAVOK 26/18 Q1013
Observed
Jul-17 @ 07:50 UTC
Wind
  • Variable at 2 KTS
Visibility
10,000+ meters
Flight Rules
VFR
Cloud Levels
  • Clear skies
Temperature
26°C / 79°F
Dewpoint
18°C / 64°F
Humidity
61%
Altimeter
29.91" Hg
Pressure
1012.92 hPa